createdAt,value
2022-09-10T00:02:10.904Z,3.13
2022-09-10T00:04:38.013Z,3.13
2022-09-10T00:07:05.405Z,2.72
2022-09-10T00:09:32.565Z,2.00
2022-09-10T00:12:03.297Z,2.40
2022-09-10T00:14:30.729Z,2.00
2022-09-10T00:17:00.482Z,1.77
2022-09-10T00:19:28.619Z,1.63
2022-09-10T00:21:55.717Z,1.42
2022-09-10T00:24:22.870Z,1.40
2022-09-10T00:26:50.689Z,1.40
2022-09-10T00:29:24.000Z,1.13
2022-09-10T00:31:51.817Z,1.65
2022-09-10T00:34:18.981Z,1.40
2022-09-10T00:36:46.801Z,1.40
2022-09-10T00:39:16.464Z,1.60
2022-09-10T00:41:45.880Z,1.50
2022-09-10T00:45:30.934Z,1.52
2022-09-10T00:48:17.125Z,1.90
2022-09-10T00:50:46.564Z,1.20
2022-09-10T00:53:16.854Z,1.40
2022-09-10T00:55:45.616Z,1.33
2022-09-10T00:58:13.918Z,1.20
2022-09-10T01:00:41.887Z,1.60
2022-09-10T01:03:11.358Z,1.40
2022-09-10T01:05:42.341Z,1.20
2022-09-10T01:08:22.685Z,1.27
2022-09-10T01:11:39.705Z,1.48
2022-09-10T01:15:31.008Z,1.98
2022-09-10T01:19:27.462Z,2.05
2022-09-10T01:22:33.728Z,1.70
2022-09-10T02:09:37.200Z,1.52
2022-09-10T02:17:51.661Z,1.60
2022-09-10T02:25:42.587Z,1.70
2022-09-10T02:30:13.698Z,1.63
2022-09-10T02:34:33.630Z,1.83
2022-09-10T02:45:59.023Z,2.10
2022-09-10T02:48:27.926Z,2.40
2022-09-10T02:50:57.800Z,2.53
2022-09-10T02:53:27.441Z,2.88
2022-09-10T02:55:57.976Z,2.45
2022-09-10T02:58:25.108Z,3.08
2022-09-10T03:00:52.246Z,2.50
2022-09-10T03:03:19.545Z,3.00
2022-09-10T03:05:47.425Z,2.65
2022-09-10T03:08:14.458Z,2.35
2022-09-10T03:10:45.385Z,2.55
2022-09-10T03:13:12.740Z,2.65
2022-09-10T03:19:45.934Z,3.00
2022-09-10T03:22:13.096Z,2.72
2022-09-10T03:24:40.059Z,3.08
2022-09-10T03:27:07.092Z,2.97
2022-09-10T03:29:36.367Z,2.70
2022-09-10T03:32:40.554Z,2.47
2022-09-10T03:38:25.549Z,2.40
2022-09-10T03:40:53.952Z,2.72
2022-09-10T03:43:32.619Z,2.40
2022-09-10T03:51:12.569Z,2.35
2022-09-10T03:54:09.931Z,2.92
2022-09-10T03:56:39.723Z,2.10
2022-09-10T03:59:35.214Z,2.50
2022-09-10T04:09:01.709Z,2.35
2022-09-10T04:14:55.707Z,3.20
2022-09-10T04:17:24.151Z,3.17
2022-09-10T04:19:51.668Z,2.63
2022-09-10T04:22:19.658Z,2.90
2022-09-10T04:24:46.607Z,2.90
2022-09-10T04:27:29.568Z,3.10
2022-09-10T04:30:04.974Z,2.85
2022-09-10T04:32:45.134Z,3.40
2022-09-10T04:35:15.363Z,3.00
2022-09-10T04:37:43.270Z,3.30
2022-09-10T04:40:12.135Z,3.50
2022-09-10T04:42:39.575Z,3.30
2022-09-10T04:45:24.168Z,3.95
2022-09-10T05:06:31.308Z,5.20
2022-09-10T05:09:53.298Z,3.95
2022-09-10T05:13:02.062Z,11.93
2022-09-10T05:15:37.269Z,11.27
2022-09-10T05:18:06.013Z,7.10
2022-09-10T05:20:35.811Z,12.93
2022-09-10T05:23:04.230Z,4.38
2022-09-10T05:25:34.647Z,4.40
2022-09-10T05:28:02.123Z,4.53
2022-09-10T05:30:32.800Z,4.60
2022-09-10T05:33:01.349Z,4.65
2022-09-10T05:35:31.579Z,3.55
2022-09-10T05:38:14.477Z,3.08
2022-09-10T05:40:46.938Z,3.25
2022-09-10T05:43:14.686Z,3.30
2022-09-10T05:45:43.698Z,3.42
2022-09-10T05:48:11.242Z,3.00
2022-09-10T05:51:07.676Z,3.30
2022-09-10T05:53:46.915Z,2.90
2022-09-10T05:56:14.312Z,3.10
2022-09-10T05:59:10.577Z,3.08
2022-09-10T06:01:55.787Z,3.47
2022-09-10T06:04:28.170Z,3.47
2022-09-10T06:06:55.498Z,3.22
2022-09-10T06:09:22.577Z,3.10
2022-09-10T06:12:22.767Z,2.95
2022-09-10T06:14:49.842Z,2.33
2022-09-10T06:17:20.085Z,2.92
2022-09-10T06:19:48.434Z,3.10
2022-09-10T06:22:18.618Z,3.13
2022-09-10T06:24:49.361Z,2.95
2022-09-10T06:27:20.634Z,3.53
2022-09-10T06:29:49.260Z,3.35
2022-09-10T06:32:16.655Z,3.67
2022-09-10T06:34:56.951Z,4.10
2022-09-10T06:37:30.111Z,3.55
2022-09-10T06:39:58.321Z,3.63
2022-09-10T06:42:25.860Z,3.30
2022-09-10T06:45:06.556Z,3.28
2022-09-10T06:48:34.767Z,2.78
2022-09-10T06:50:57.262Z,3.03
2022-09-10T06:53:29.686Z,2.40
2022-09-10T06:56:00.174Z,2.40
2022-09-10T06:58:31.420Z,2.58
2022-09-10T07:00:59.025Z,2.72
2022-09-10T07:03:26.016Z,2.67
2022-09-10T07:05:54.879Z,3.58
2022-09-10T07:08:25.455Z,2.70
2022-09-10T07:11:00.301Z,3.28
2022-09-10T07:13:27.949Z,2.92
2022-09-10T07:15:55.805Z,3.60
2022-09-10T07:18:23.779Z,3.63
2022-09-10T07:20:50.699Z,4.00
2022-09-10T07:23:20.195Z,3.97
2022-09-10T07:25:48.982Z,3.85
2022-09-10T07:28:36.419Z,4.10
2022-09-10T07:31:28.075Z,3.60
2022-09-10T07:34:00.781Z,4.60
2022-09-10T07:36:29.546Z,4.70
2022-09-10T07:39:01.569Z,4.50
2022-09-10T07:41:31.872Z,4.47
2022-09-10T07:44:00.187Z,4.53
2022-09-10T07:46:32.761Z,4.80
2022-09-10T07:49:01.344Z,3.92
2022-09-10T07:51:30.039Z,4.22
2022-09-10T07:54:00.044Z,4.82
2022-09-10T07:56:35.422Z,4.43
2022-09-10T07:59:05.506Z,4.35
2022-09-10T08:01:39.680Z,4.00
2022-09-10T08:04:07.511Z,3.80
2022-09-10T08:06:39.075Z,4.10
2022-09-10T08:09:09.535Z,4.30
2022-09-10T08:11:42.238Z,3.75
2022-09-10T08:14:13.392Z,4.15
2022-09-10T08:16:44.273Z,4.55
2022-09-10T08:19:16.007Z,3.58
2022-09-10T08:21:45.284Z,3.85
2022-09-10T08:24:13.997Z,2.70
2022-09-10T08:26:44.296Z,3.00
2022-09-10T08:29:11.109Z,2.25
2022-09-10T08:31:38.911Z,1.95
2022-09-10T08:34:12.453Z,2.08
2022-09-10T08:36:42.241Z,1.20
2022-09-10T08:39:09.906Z,1.40
2022-09-10T08:41:38.358Z,0.80
2022-09-10T08:44:10.328Z,1.20
2022-09-10T08:46:43.982Z,0.95
2022-09-10T08:49:23.734Z,0.98
2022-09-10T08:51:56.830Z,1.20
2022-09-10T08:54:27.056Z,1.10
2022-09-10T08:56:58.393Z,1.10
2022-09-10T08:59:31.047Z,1.27
2022-09-10T09:02:01.257Z,1.27
2022-09-10T09:04:43.254Z,1.10
2022-09-10T09:07:15.900Z,1.30
2022-09-10T09:09:51.504Z,1.27
2022-09-10T09:12:24.375Z,0.97
2022-09-10T09:15:08.725Z,0.88
2022-09-10T09:17:51.691Z,1.05
2022-09-10T09:20:37.065Z,0.90
2022-09-10T09:23:17.757Z,0.82
2022-09-10T09:25:48.929Z,0.90
2022-09-10T09:28:47.531Z,0.90
2022-09-10T09:31:31.426Z,0.95
2022-09-10T09:34:34.175Z,0.77
2022-09-10T09:37:10.395Z,0.90
2022-09-10T09:40:07.313Z,0.90
2022-09-10T09:42:46.923Z,1.10
2022-09-10T09:45:26.177Z,0.95
2022-09-10T09:47:54.567Z,1.00
2022-09-10T09:50:22.907Z,0.85
2022-09-10T09:52:55.175Z,0.70
2022-09-10T09:55:37.754Z,1.08
2022-09-10T09:58:23.979Z,1.00
2022-09-10T10:01:05.948Z,1.63
2022-09-10T10:03:36.108Z,0.90
2022-09-10T10:06:06.115Z,1.15
2022-09-10T10:08:37.886Z,1.00
2022-09-10T10:11:05.298Z,1.10
2022-09-10T10:13:41.131Z,0.95
2022-09-10T10:16:24.547Z,0.82
2022-09-10T10:18:51.626Z,0.80
2022-09-10T10:21:46.975Z,1.23
2022-09-10T10:24:34.036Z,0.70
2022-09-10T10:27:00.931Z,1.00
2022-09-10T10:29:28.108Z,0.82
2022-09-10T10:31:56.188Z,1.30
2022-09-10T10:34:47.533Z,1.27
2022-09-10T10:37:21.215Z,1.15
2022-09-10T10:40:14.911Z,1.00
2022-09-10T10:42:48.040Z,1.25
2022-09-10T10:45:23.847Z,1.20
2022-09-10T10:47:54.908Z,1.45
2022-09-10T10:50:31.317Z,0.80
2022-09-10T10:53:26.815Z,1.30
2022-09-10T10:56:04.391Z,1.10
2022-09-10T10:58:37.712Z,1.20
2022-09-10T11:01:15.942Z,1.30
2022-09-10T11:04:04.671Z,1.08
2022-09-10T11:06:39.205Z,1.17
2022-09-10T11:09:23.507Z,0.98
2022-09-10T11:12:03.737Z,1.10
2022-09-10T11:14:39.774Z,1.30
2022-09-10T11:17:13.162Z,1.50
2022-09-10T11:20:29.027Z,1.00
2022-09-10T11:23:03.657Z,1.02
2022-09-10T11:25:39.224Z,1.00
2022-09-10T11:28:12.579Z,1.20
2022-09-10T11:30:48.802Z,1.80
2022-09-10T11:33:25.962Z,1.63
2022-09-10T11:36:19.162Z,1.58
2022-09-10T11:38:54.951Z,1.33
2022-09-10T11:41:23.491Z,2.20
2022-09-10T11:44:36.617Z,2.08
2022-09-10T11:47:12.508Z,1.30
2022-09-10T11:49:43.612Z,1.65
2022-09-10T11:52:12.214Z,1.67
2022-09-10T11:54:39.651Z,1.40
2022-09-10T11:57:31.221Z,1.70
2022-09-10T12:00:20.377Z,1.67
2022-09-10T12:03:04.002Z,1.70
2022-09-10T12:05:43.706Z,1.80
2022-09-10T12:08:29.507Z,1.92
2022-09-10T12:11:14.672Z,1.55
2022-09-10T12:13:42.061Z,1.95
2022-09-10T12:16:19.275Z,2.00
2022-09-10T12:18:49.086Z,1.55
2022-09-10T12:21:26.389Z,1.63
2022-09-10T12:23:54.334Z,1.40
2022-09-10T12:26:22.226Z,1.40
2022-09-10T12:28:49.531Z,1.58
2022-09-10T12:31:18.746Z,1.70
2022-09-10T12:33:45.566Z,1.67
2022-09-10T12:36:14.864Z,1.45
2022-09-10T12:38:44.675Z,1.40
2022-09-10T12:41:14.786Z,1.48
2022-09-10T12:43:42.518Z,1.52
2022-09-10T12:46:10.177Z,1.48
2022-09-10T12:48:39.958Z,1.63
2022-09-10T12:51:48.610Z,1.50
2022-09-10T12:54:49.850Z,1.55
2022-09-10T12:57:32.018Z,1.85
2022-09-10T13:00:02.297Z,1.80
2022-09-10T13:02:33.508Z,1.77
2022-09-10T13:05:40.232Z,1.50
2022-09-10T13:08:11.367Z,1.63
2022-09-10T13:10:39.274Z,1.70
2022-09-10T13:13:08.690Z,1.90
2022-09-10T13:15:39.147Z,2.00
2022-09-10T13:18:09.322Z,2.00
2022-09-10T13:20:36.327Z,1.45
2022-09-10T13:23:09.426Z,1.40
2022-09-10T13:28:31.632Z,2.00
2022-09-10T13:31:03.748Z,1.85
2022-09-10T13:33:34.527Z,1.48
2022-09-10T13:36:13.511Z,1.80
2022-09-10T13:39:06.909Z,1.73
2022-09-10T13:42:11.117Z,1.50
2022-09-10T13:45:03.167Z,1.75
2022-09-10T13:48:07.965Z,1.73
2022-09-10T13:50:39.979Z,1.92
2022-09-10T13:53:08.908Z,1.42
2022-09-10T13:55:35.885Z,1.25
2022-09-10T13:58:14.497Z,1.80
2022-09-10T14:00:53.459Z,1.50
2022-09-10T14:03:23.609Z,1.45
2022-09-10T14:05:53.476Z,1.52
2022-09-10T14:08:30.400Z,1.73
2022-09-10T14:11:00.852Z,1.30
2022-09-10T14:13:33.741Z,1.58
2022-09-10T14:16:02.357Z,1.70
2022-09-10T14:18:51.545Z,1.40
2022-09-10T14:21:19.637Z,2.05
2022-09-10T14:23:47.666Z,1.60
2022-09-10T14:26:26.305Z,1.63
2022-09-10T14:28:53.252Z,1.73
2022-09-10T14:31:26.650Z,1.65
2022-09-10T14:33:56.004Z,1.40
2022-09-10T14:36:33.555Z,1.80
2022-09-10T14:39:03.406Z,1.58
2022-09-10T14:41:33.201Z,1.88
2022-09-10T14:44:42.478Z,1.50
2022-09-10T14:47:10.215Z,1.70
2022-09-10T14:49:39.125Z,1.50
2022-09-10T14:52:06.504Z,1.55
2022-09-10T14:54:34.615Z,1.40
2022-09-10T14:57:03.434Z,1.55
2022-09-10T14:59:36.195Z,1.30
2022-09-10T15:02:08.333Z,1.60
2022-09-10T15:04:35.342Z,1.80
2022-09-10T15:07:02.762Z,1.20
2022-09-10T15:09:31.043Z,1.55
2022-09-10T15:12:15.393Z,1.40
2022-09-10T15:14:42.361Z,1.73
2022-09-10T15:17:13.849Z,1.30
2022-09-10T15:19:40.835Z,1.40
2022-09-10T15:22:07.601Z,1.70
2022-09-10T15:24:47.434Z,1.52
2022-09-10T15:27:21.940Z,1.27
2022-09-10T15:29:49.267Z,1.70
2022-09-10T15:32:18.263Z,1.30
2022-09-10T15:34:45.142Z,1.30
2022-09-10T15:37:11.922Z,1.48
2022-09-10T15:39:38.802Z,1.50
2022-09-10T15:42:06.198Z,2.00
2022-09-10T15:44:34.336Z,1.20
2022-09-10T15:47:02.083Z,1.20
2022-09-10T15:49:29.799Z,1.67
2022-09-10T15:51:57.390Z,1.45
2022-09-10T15:54:24.403Z,1.75
2022-09-10T15:56:51.407Z,1.48
2022-09-10T15:59:18.206Z,1.85
2022-09-10T16:01:45.125Z,1.45
2022-09-10T16:04:12.021Z,1.38
2022-09-10T16:06:40.249Z,2.60
2022-09-10T16:09:10.034Z,1.30
2022-09-10T16:11:39.131Z,1.60
2022-09-10T16:14:07.538Z,1.20
2022-09-10T16:16:35.843Z,1.60
2022-09-10T16:19:03.383Z,1.92
2022-09-10T16:21:32.293Z,1.45
2022-09-10T16:24:00.480Z,1.50
2022-09-10T16:26:29.900Z,1.10
2022-09-10T16:29:00.331Z,1.25
2022-09-10T16:31:30.341Z,1.63
2022-09-10T16:33:59.330Z,1.38
2022-09-10T16:36:26.785Z,1.65
2022-09-10T16:38:57.701Z,1.95
2022-09-10T16:41:25.560Z,2.10
2022-09-10T16:43:53.143Z,1.20
2022-09-10T16:46:20.473Z,1.80
2022-09-10T16:48:51.757Z,1.70
2022-09-10T16:51:20.046Z,2.10
2022-09-10T16:53:55.893Z,1.90
2022-09-10T16:56:23.881Z,1.73
2022-09-10T16:58:51.204Z,1.90
2022-09-10T17:01:18.723Z,1.90
2022-09-10T17:03:49.922Z,1.65
2022-09-10T17:06:21.658Z,1.70
2022-09-10T17:08:48.506Z,1.65
2022-09-10T17:11:17.553Z,1.75
2022-09-10T17:13:44.448Z,1.85
2022-09-10T17:16:16.370Z,1.38
2022-09-10T17:18:44.423Z,1.63
2022-09-10T17:21:11.508Z,1.88
2022-09-10T17:23:38.394Z,1.85
2022-09-10T17:26:09.055Z,2.20
2022-09-10T17:28:37.246Z,1.77
2022-09-10T17:31:05.055Z,1.65
2022-09-10T17:33:33.629Z,2.13
2022-09-10T17:36:02.625Z,2.33
2022-09-10T17:38:33.973Z,3.50
2022-09-10T17:41:03.010Z,2.85
2022-09-10T17:43:35.557Z,2.42
2022-09-10T17:46:07.878Z,1.65
2022-09-10T17:48:35.807Z,1.83
2022-09-10T17:51:02.843Z,1.60
2022-09-10T17:53:30.501Z,1.58
2022-09-10T17:56:07.801Z,1.70
2022-09-10T17:58:38.174Z,1.63
2022-09-10T18:01:34.027Z,1.70
2022-09-10T18:04:03.241Z,1.52
2022-09-10T18:06:30.494Z,1.80
2022-09-10T18:08:59.120Z,1.83
2022-09-10T18:11:28.778Z,1.80
2022-09-10T18:13:57.256Z,2.38
2022-09-10T18:16:26.810Z,1.85
2022-09-10T18:18:59.592Z,2.03
2022-09-10T18:21:32.583Z,2.60
2022-09-10T18:24:04.804Z,2.28
2022-09-10T18:26:39.546Z,2.13
2022-09-10T18:31:57.329Z,2.30
2022-09-10T18:34:30.356Z,2.80
2022-09-10T18:36:59.993Z,2.70
2022-09-10T18:39:37.293Z,2.40
2022-09-10T18:42:06.769Z,1.77
2022-09-10T18:44:36.575Z,2.30
2022-09-10T18:47:17.890Z,2.22
2022-09-10T18:49:59.171Z,2.78
2022-09-10T18:52:29.603Z,3.17
2022-09-10T18:54:56.715Z,3.58
2022-09-10T18:57:24.943Z,3.58
2022-09-10T18:59:55.019Z,3.95
2022-09-10T19:02:22.080Z,4.25
2022-09-10T19:05:09.743Z,4.40
2022-09-10T19:07:38.717Z,4.47
2022-09-10T19:10:07.080Z,4.25
2022-09-10T19:12:34.291Z,2.78
2022-09-10T19:15:01.444Z,3.15
2022-09-10T19:17:32.880Z,3.97
2022-09-10T19:20:00.182Z,3.75
2022-09-10T19:22:27.550Z,4.15
2022-09-10T19:24:55.792Z,4.22
2022-09-10T19:27:26.041Z,4.28
2022-09-10T19:29:53.767Z,4.68
2022-09-10T19:32:21.156Z,4.75
2022-09-10T19:34:51.896Z,5.45
2022-09-10T19:37:19.626Z,5.45
2022-09-10T19:39:49.799Z,4.45
2022-09-10T19:42:17.206Z,6.07
2022-09-10T19:44:44.052Z,5.60
2022-09-10T19:47:10.938Z,6.18
2022-09-10T19:49:39.187Z,6.40
2022-09-10T19:52:06.629Z,6.40
2022-09-10T19:54:33.561Z,5.93
2022-09-10T19:57:00.463Z,6.15
2022-09-10T19:59:28.253Z,6.63
2022-09-10T20:01:55.295Z,6.03
2022-09-10T20:04:22.270Z,6.10
2022-09-10T20:06:52.229Z,6.20
2022-09-10T20:09:19.336Z,5.60
2022-09-10T20:11:46.235Z,6.35
2022-09-10T20:14:14.192Z,6.47
2022-09-10T20:16:43.842Z,7.25
2022-09-10T20:19:13.248Z,6.32
2022-09-10T20:21:42.285Z,6.72
2022-09-10T20:24:10.407Z,7.32
2022-09-10T20:26:41.306Z,7.15
2022-09-10T20:29:14.322Z,6.65
2022-09-10T20:31:46.355Z,10.88
2022-09-10T20:34:17.131Z,7.93
2022-09-10T20:36:44.235Z,6.93
2022-09-10T20:39:24.046Z,7.43
2022-09-10T20:41:50.963Z,6.78
2022-09-10T20:44:18.283Z,7.50
2022-09-10T20:46:49.859Z,9.93
2022-09-10T20:49:17.094Z,8.20
2022-09-10T20:51:44.968Z,7.18
2022-09-10T20:54:14.995Z,6.88
2022-09-10T20:56:42.695Z,12.90
2022-09-10T20:59:20.842Z,9.60
2022-09-10T21:01:50.905Z,8.68
2022-09-10T21:04:19.309Z,13.02
2022-09-10T21:06:46.352Z,9.57
2022-09-10T21:09:13.618Z,14.00
2022-09-10T21:11:40.850Z,10.82
2022-09-10T21:14:09.226Z,9.13
2022-09-10T21:16:39.083Z,24.80
2022-09-10T21:19:14.519Z,13.63
2022-09-10T21:21:42.757Z,11.05
2022-09-10T21:24:22.621Z,15.65
2022-09-10T21:26:50.389Z,23.35
2022-09-10T21:29:20.821Z,11.57
2022-09-10T21:31:50.603Z,11.70
2022-09-10T21:34:17.855Z,12.38
2022-09-10T21:36:47.918Z,10.30
2022-09-10T21:39:17.343Z,11.68
2022-09-10T21:41:47.121Z,12.00
2022-09-10T21:44:19.879Z,11.55
2022-09-10T21:46:51.308Z,13.00
2022-09-10T21:49:19.961Z,12.15
2022-09-10T21:51:49.560Z,11.30
2022-09-10T21:54:20.423Z,11.32
2022-09-10T21:56:56.859Z,10.05
2022-09-10T21:59:25.927Z,9.65
2022-09-10T22:01:54.739Z,10.20
2022-09-10T22:04:24.753Z,10.93
2022-09-10T22:07:11.699Z,10.45
2022-09-10T22:29:52.677Z,14.40
2022-09-10T22:32:56.628Z,15.57
2022-09-10T22:36:24.555Z,14.10
2022-09-10T22:43:14.726Z,13.52
2022-09-10T22:49:49.646Z,14.20
2022-09-10T22:52:54.010Z,14.88
2022-09-10T22:55:38.703Z,13.88
2022-09-10T22:58:20.743Z,13.20
2022-09-10T23:00:54.360Z,12.60
2022-09-10T23:03:22.129Z,12.85
2022-09-10T23:06:15.115Z,12.35
2022-09-10T23:08:44.777Z,12.00
2022-09-10T23:11:22.398Z,12.02
2022-09-10T23:13:52.836Z,11.65
2022-09-10T23:16:31.727Z,11.32
2022-09-10T23:22:41.279Z,10.48
2022-09-10T23:25:36.063Z,10.52
2022-09-10T23:28:16.418Z,11.68
2022-09-10T23:30:47.815Z,10.65
2022-09-10T23:33:14.810Z,11.27
2022-09-10T23:35:50.040Z,12.10
2022-09-10T23:38:18.292Z,11.05
2022-09-10T23:40:51.074Z,10.95
2022-09-10T23:46:58.909Z,13.93
2022-09-10T23:50:02.391Z,11.45
2022-09-10T23:52:54.131Z,10.48
2022-09-10T23:56:36.045Z,15.88
